createdAt,value
2018-04-17T00:05:39.927Z,37.70
2018-04-17T00:11:44.299Z,30.27
2018-04-17T00:17:48.786Z,30.13
2018-04-17T00:23:53.349Z,26.47
2018-04-17T00:29:57.878Z,30.70
2018-04-17T00:36:02.281Z,32.30
2018-04-17T00:42:07.446Z,35.40
2018-04-17T00:48:12.289Z,29.80
2018-04-17T00:54:16.741Z,36.67
2018-04-17T01:00:21.118Z,36.80
2018-04-17T01:06:25.583Z,30.07
2018-04-17T01:12:30.800Z,34.10
2018-04-17T01:18:35.196Z,35.57
2018-04-17T01:24:40.096Z,36.37
2018-04-17T01:30:44.696Z,34.93
2018-04-17T01:36:49.105Z,34.70
2018-04-17T01:42:54.264Z,35.43
2018-04-17T01:48:58.703Z,36.40
2018-04-17T01:55:03.161Z,34.33
2018-04-17T02:01:07.641Z,41.57
2018-04-17T02:07:12.027Z,40.93
2018-04-17T02:13:16.427Z,36.87
2018-04-17T02:19:20.874Z,31.63
2018-04-17T02:25:25.342Z,36.70
2018-04-17T02:31:29.746Z,29.00
2018-04-17T02:37:34.137Z,34.03
2018-04-17T02:43:38.520Z,34.80
2018-04-17T02:49:43.235Z,27.33
2018-04-17T02:55:48.440Z,25.87
2018-04-17T03:01:52.818Z,46.10
2018-04-17T03:07:58.093Z,30.17
2018-04-17T03:14:03.234Z,24.27
2018-04-17T03:20:07.845Z,36.13
2018-04-17T03:26:12.272Z,34.90
2018-04-17T03:32:16.655Z,29.00
2018-04-17T03:38:21.103Z,40.40
2018-04-17T03:44:26.307Z,26.07
2018-04-17T03:50:30.667Z,34.77
2018-04-17T03:56:35.056Z,49.83
2018-04-17T04:02:39.458Z,28.00
2018-04-17T04:08:43.929Z,55.70
2018-04-17T04:14:48.392Z,50.07
2018-04-17T04:21:10.679Z,43.10
2018-04-17T04:27:15.070Z,43.20
2018-04-17T04:33:19.466Z,54.90
2018-04-17T04:39:23.923Z,63.70
2018-04-17T04:45:28.512Z,48.30
2018-04-17T04:51:32.917Z,68.07
2018-04-17T04:57:37.344Z,37.43
2018-04-17T05:03:41.936Z,36.70
2018-04-17T05:09:46.346Z,36.17
2018-04-17T05:15:50.748Z,29.93
2018-04-17T05:21:55.927Z,31.87
2018-04-17T05:28:00.343Z,24.50
2018-04-17T05:34:04.744Z,26.70
2018-04-17T05:40:09.287Z,26.80
2018-04-17T05:46:14.791Z,24.10
2018-04-17T05:52:19.933Z,22.50
2018-04-17T05:58:24.330Z,23.50
2018-04-17T06:04:28.763Z,31.53
2018-04-17T06:10:33.210Z,25.33
2018-04-17T06:16:37.666Z,33.07
2018-04-17T06:22:42.077Z,25.77
2018-04-17T06:28:46.457Z,23.73
2018-04-17T06:34:50.950Z,22.47
2018-04-17T06:40:55.356Z,19.83
2018-04-17T06:46:59.744Z,24.07
2018-04-17T06:53:04.968Z,18.87
2018-04-17T06:59:09.588Z,16.00
2018-04-17T07:05:14.070Z,18.03
2018-04-17T07:11:18.455Z,17.83
2018-04-17T07:17:22.869Z,19.30
2018-04-17T07:23:27.282Z,21.60
2018-04-17T07:29:31.741Z,21.03
2018-04-17T07:35:36.855Z,33.93
2018-04-17T07:41:41.442Z,23.73
2018-04-17T07:48:03.705Z,22.30
2018-04-17T07:54:08.174Z,29.43
2018-04-17T08:00:12.586Z,24.60
2018-04-17T08:06:17.002Z,28.33
2018-04-17T08:12:22.241Z,25.90
2018-04-17T08:18:26.722Z,26.93
2018-04-17T08:24:31.131Z,22.23
2018-04-17T08:30:35.501Z,24.00
2018-04-17T08:36:40.753Z,24.60
2018-04-17T08:42:45.198Z,25.97
2018-04-17T08:48:49.669Z,26.50
2018-04-17T08:54:54.817Z,27.27
2018-04-17T09:00:59.203Z,24.67
2018-04-17T09:07:03.660Z,26.43
2018-04-17T09:13:08.047Z,23.27
2018-04-17T09:19:13.272Z,26.50
2018-04-17T09:25:17.692Z,25.70
2018-04-17T09:31:22.148Z,25.10
2018-04-17T09:37:27.291Z,20.10
2018-04-17T09:43:31.749Z,18.43
2018-04-17T09:49:36.146Z,19.13
2018-04-17T09:55:41.026Z,22.87
2018-04-17T10:01:45.416Z,23.47
2018-04-17T10:07:49.849Z,26.50
2018-04-17T10:13:54.325Z,20.03
2018-04-17T10:19:58.818Z,15.07
2018-04-17T10:26:03.214Z,20.47
2018-04-17T10:32:07.613Z,20.00
2018-04-17T10:38:12.080Z,14.47
2018-04-17T10:44:16.574Z,13.33
2018-04-17T10:50:20.979Z,14.33
2018-04-17T10:56:26.190Z,13.30
2018-04-17T11:02:30.652Z,16.50
2018-04-17T11:08:35.127Z,18.30
2018-04-17T11:14:39.657Z,14.00
2018-04-17T11:20:44.254Z,15.67
2018-04-17T11:26:48.663Z,11.63
2018-04-17T11:32:53.034Z,17.50
2018-04-17T11:38:57.425Z,11.80
2018-04-17T11:45:01.819Z,13.40
2018-04-17T11:51:06.175Z,12.53
2018-04-17T11:57:10.563Z,9.30
2018-04-17T12:03:14.997Z,19.30
2018-04-17T12:09:20.171Z,12.17
2018-04-17T12:15:24.585Z,11.13
2018-04-17T12:21:28.973Z,11.30
2018-04-17T12:27:33.344Z,8.73
2018-04-17T12:33:37.766Z,12.93
2018-04-17T12:39:42.575Z,14.20
2018-04-17T12:45:47.785Z,9.47
2018-04-17T12:51:52.322Z,10.10
2018-04-17T12:57:56.672Z,13.43
2018-04-17T13:04:01.144Z,10.37
2018-04-17T13:10:05.518Z,14.67
2018-04-17T13:16:10.148Z,8.30
2018-04-17T13:22:17.600Z,12.73
2018-04-17T13:28:22.819Z,12.20
2018-04-17T13:34:27.189Z,6.43
2018-04-17T13:40:31.612Z,11.13
2018-04-17T13:46:35.997Z,8.97
2018-04-17T13:52:40.435Z,14.63
2018-04-17T13:58:44.888Z,7.70
2018-04-17T14:04:49.372Z,8.53
2018-04-17T14:10:53.856Z,7.60
2018-04-17T14:16:58.222Z,7.07
2018-04-17T14:23:02.635Z,8.87
2018-04-17T14:29:07.005Z,9.13
2018-04-17T14:35:11.943Z,9.90
2018-04-17T14:41:17.110Z,11.83
2018-04-17T14:47:21.566Z,7.37
2018-04-17T14:53:26.028Z,9.53
2018-04-17T14:59:30.490Z,6.70
2018-04-17T15:05:34.905Z,11.23
2018-04-17T15:11:39.291Z,12.93
2018-04-17T15:17:43.734Z,8.27
2018-04-17T15:23:48.169Z,8.67
2018-04-17T15:29:53.306Z,9.37
2018-04-17T15:35:57.681Z,12.10
2018-04-17T15:42:02.132Z,8.30
2018-04-17T15:48:06.622Z,12.93
2018-04-17T15:54:11.207Z,9.67
2018-04-17T16:00:15.663Z,16.73
2018-04-17T16:06:20.079Z,14.00
2018-04-17T16:12:24.435Z,10.90
2018-04-17T16:18:28.801Z,15.20
2018-04-17T16:24:33.285Z,10.47
2018-04-17T16:30:37.668Z,17.23
2018-04-17T16:36:42.372Z,11.43
2018-04-17T16:42:46.768Z,20.00
2018-04-17T16:48:51.123Z,11.57
2018-04-17T16:54:55.512Z,9.77
2018-04-17T17:00:59.916Z,10.33
2018-04-17T17:07:05.050Z,10.67
2018-04-17T17:13:09.620Z,8.70
2018-04-17T17:19:14.104Z,8.93
2018-04-17T17:25:18.485Z,8.07
2018-04-17T17:31:22.874Z,8.47
2018-04-17T17:37:27.315Z,10.63
2018-04-17T17:43:31.680Z,8.20
2018-04-17T17:49:36.060Z,7.40
2018-04-17T17:55:40.526Z,11.17
2018-04-17T18:01:45.307Z,10.13
2018-04-17T18:07:49.677Z,10.23
2018-04-17T18:13:54.824Z,12.90
2018-04-17T18:19:59.181Z,8.70
2018-04-17T18:26:03.547Z,16.50
2018-04-17T18:32:07.970Z,9.67
2018-04-17T18:38:12.565Z,12.10
2018-04-17T18:44:17.064Z,12.80
2018-04-17T18:50:21.424Z,9.03
2018-04-17T18:56:26.689Z,13.30
2018-04-17T19:02:31.058Z,10.60
2018-04-17T19:08:35.493Z,12.40
2018-04-17T19:14:40.077Z,11.00
2018-04-17T19:20:44.515Z,12.70
2018-04-17T19:26:49.728Z,14.57
2018-04-17T19:32:54.113Z,9.73
2018-04-17T19:38:58.499Z,9.20
2018-04-17T19:45:02.936Z,9.13
2018-04-17T19:51:08.111Z,13.47
2018-04-17T19:57:12.568Z,9.33
2018-04-17T20:03:16.971Z,10.60
2018-04-17T20:09:21.353Z,9.73
2018-04-17T20:15:25.771Z,9.30
2018-04-17T20:21:30.156Z,12.30
2018-04-17T20:27:34.528Z,10.87
2018-04-17T20:33:38.886Z,13.70
2018-04-17T20:39:43.283Z,11.23
2018-04-17T20:45:47.664Z,11.97
2018-04-17T20:51:52.032Z,10.13
2018-04-17T20:57:56.584Z,8.33
2018-04-17T21:04:01.745Z,9.03
2018-04-17T21:10:06.158Z,11.33
2018-04-17T21:16:10.754Z,15.13
2018-04-17T21:22:15.124Z,17.53
2018-04-17T21:28:19.528Z,11.60
2018-04-17T21:34:23.882Z,7.73
2018-04-17T21:40:28.276Z,14.33
2018-04-17T21:46:32.712Z,7.40
2018-04-17T21:52:37.173Z,12.63
2018-04-17T21:58:41.558Z,8.10
2018-04-17T22:04:45.962Z,8.27
2018-04-17T22:10:50.351Z,8.87
2018-04-17T22:16:54.879Z,7.83
2018-04-17T22:22:59.380Z,15.20
2018-04-17T22:29:03.748Z,11.90
2018-04-17T22:35:08.127Z,12.03
2018-04-17T22:41:12.727Z,12.00
2018-04-17T22:47:17.166Z,11.50
2018-04-17T22:53:21.526Z,9.80
2018-04-17T22:59:25.905Z,13.67
2018-04-17T23:05:31.233Z,21.40
2018-04-17T23:11:35.853Z,20.40
2018-04-17T23:17:40.226Z,10.47
2018-04-17T23:23:44.677Z,14.50
2018-04-17T23:29:49.030Z,12.87
2018-04-17T23:35:53.434Z,11.70
2018-04-17T23:41:57.811Z,19.97
2018-04-17T23:48:02.175Z,13.80
2018-04-17T23:54:06.551Z,12.80
